Time;durP1;ratioP1;P1;durP2;ratioP2;P2;SDS_P1;SDS_P2;PMS_P1;PMS_P2;Temp;Humidity;BMP_temperature;BMP_pressure;BME280_temperature;BME280_humidity;BME280_pressure;Samples;Min_cycle;Max_cycle;Signal;HPM_P1;HPM_P2
2021/12/22 00:02:20;;;;;;;23.30;7.53;;;;;;;2.31;100.00;98758.25;5092764;28;20661;-62
2021/12/22 00:04:49;;;;;;;34.97;8.13;;;;;;;2.30;100.00;98759.25;5092871;28;20628;-63
2021/12/22 00:07:17;;;;;;;32.60;8.10;;;;;;;2.29;100.00;98756.81;5092862;28;20613;-62
2021/12/22 00:09:44;;;;;;;29.87;7.57;;;;;;;2.28;100.00;98755.19;5092719;28;20593;-62
2021/12/22 00:12:12;;;;;;;25.87;7.87;;;;;;;2.26;100.00;98757.19;5092816;28;20609;-63
2021/12/22 00:14:38;;;;;;;24.20;7.00;;;;;;;2.24;100.00;98759.19;5092623;28;21442;-61
2021/12/22 00:17:05;;;;;;;21.40;6.17;;;;;;;2.21;100.00;98756.94;5092457;28;20601;-62
2021/12/22 00:19:32;;;;;;;27.23;7.13;;;;;;;2.14;100.00;98765.59;5092681;28;20667;-62
2021/12/22 00:21:59;;;;;;;18.63;5.97;;;;;;;2.11;100.00;98775.69;5092568;28;20612;-61
2021/12/22 00:24:27;;;;;;;36.13;8.77;;;;;;;2.13;100.00;98774.53;5092345;28;20609;-62
2021/12/22 00:26:54;;;;;;;40.20;7.37;;;;;;;2.14;100.00;98764.78;5092601;28;20601;-61
2021/12/22 00:29:21;;;;;;;31.93;6.80;;;;;;;2.14;100.00;98772.69;5092374;28;20597;-62
2021/12/22 00:32:07;;;;;;;29.33;7.30;;;;;;;2.16;100.00;98771.50;5092280;28;20617;-62
2021/12/22 00:34:34;;;;;;;34.17;8.87;;;;;;;2.17;100.00;98778.38;5092369;28;20667;-61
2021/12/22 00:37:00;;;;;;;36.17;7.77;;;;;;;2.17;100.00;98772.28;5091793;28;20616;-61
2021/12/22 00:39:28;;;;;;;26.73;7.07;;;;;;;2.17;100.00;98773.13;5091845;28;20609;-61
2021/12/22 00:41:55;;;;;;;41.10;7.90;;;;;;;2.13;100.00;98785.06;5092214;28;21157;-61
2021/12/22 00:44:23;;;;;;;15.63;6.43;;;;;;;2.08;100.00;98782.16;5091930;28;20625;-61
2021/12/22 00:46:49;;;;;;;40.97;6.70;;;;;;;2.07;100.00;98780.50;5092060;28;20604;-62
2021/12/22 00:49:16;;;;;;;25.07;6.23;;;;;;;2.00;100.00;98789.38;5092195;28;20605;-62
2021/12/22 00:51:42;;;;;;;32.50;6.97;;;;;;;2.01;100.00;98781.25;5092091;28;20605;-62
2021/12/22 00:54:09;;;;;;;18.70;6.00;;;;;;;2.02;100.00;98798.72;5091903;28;20609;-62
2021/12/22 00:56:38;;;;;;;19.73;6.27;;;;;;;1.98;100.00;98792.16;5091943;28;20656;-62
2021/12/22 00:59:04;;;;;;;28.00;7.00;;;;;;;1.96;100.00;98796.81;5091931;28;20609;-62
2021/12/22 01:01:31;;;;;;;51.20;7.67;;;;;;;1.85;100.00;98791.22;5091703;28;20601;-60
2021/12/22 01:03:58;;;;;;;27.63;6.00;;;;;;;1.76;100.00;98787.09;5091882;28;20598;-61
2021/12/22 01:06:24;;;;;;;28.07;7.30;;;;;;;1.86;100.00;98793.66;5091611;28;20597;-61
2021/12/22 01:08:51;;;;;;;57.67;8.13;;;;;;;1.89;100.00;98798.56;5091751;28;20620;-63
2021/12/22 01:11:17;;;;;;;30.27;7.30;;;;;;;1.91;100.00;98795.75;5091809;28;20665;-62
2021/12/22 01:13:45;;;;;;;63.27;8.50;;;;;;;1.83;100.00;98794.03;5091580;28;20667;-61
2021/12/22 01:16:12;;;;;;;57.10;7.93;;;;;;;1.69;100.00;98792.28;5091792;28;20643;-62
2021/12/22 01:18:39;;;;;;;19.10;5.93;;;;;;;1.61;100.00;98801.06;5091498;28;20624;-62
2021/12/22 01:21:13;;;;;;;30.17;5.90;;;;;;;1.38;100.00;98791.69;5091620;28;21347;-62
2021/12/22 01:23:51;;;;;;;65.83;8.27;;;;;;;1.42;100.00;98788.50;5091262;28;20717;-62
2021/12/22 01:26:18;;;;;;;49.87;7.50;;;;;;;1.32;100.00;98797.66;5091373;28;20641;-62
2021/12/22 01:28:46;;;;;;;13.13;5.23;;;;;;;1.39;100.00;98804.63;5091479;28;20612;-62
2021/12/22 01:31:15;;;;;;;30.97;7.47;;;;;;;1.40;100.00;98787.03;5091532;28;20643;-61
2021/12/22 01:33:42;;;;;;;20.80;7.00;;;;;;;1.12;100.00;98796.56;5083286;28;20621;-61
2021/12/22 01:36:09;;;;;;;23.97;6.77;;;;;;;1.17;100.00;98794.22;5091553;28;20609;-62
2021/12/22 01:38:36;;;;;;;21.50;7.10;;;;;;;1.25;100.00;98799.38;5091544;28;20639;-62
2021/12/22 01:41:03;;;;;;;26.13;6.30;;;;;;;1.26;100.00;98795.78;5091585;28;20609;-62
2021/12/22 01:43:30;;;;;;;18.50;6.57;;;;;;;1.13;100.00;98801.66;5091287;28;20617;-65
2021/12/22 01:46:21;;;;;;;27.93;6.17;;;;;;;1.00;100.00;98802.28;5091333;28;20649;-63
2021/12/22 01:51:50;;;;;;;27.40;6.20;;;;;;;1.11;100.00;98792.31;5066280;28;20638;-62
2021/12/22 01:54:34;;;;;;;15.10;6.00;;;;;;;1.38;100.00;98796.94;5091183;28;20621;-61
2021/12/22 01:57:08;;;;;;;23.53;5.80;;;;;;;1.44;100.00;98793.56;5091165;28;20647;-61
2021/12/22 01:59:35;;;;;;;19.80;5.63;;;;;;;1.48;100.00;98800.13;5091180;28;20597;-62
2021/12/22 02:02:05;;;;;;;40.47;8.03;;;;;;;1.56;100.00;98786.84;5091125;28;20617;-63
2021/12/22 02:04:32;;;;;;;63.83;8.50;;;;;;;1.44;100.00;98783.88;5090810;28;20647;-62
2021/12/22 02:06:58;;;;;;;27.13;6.10;;;;;;;1.52;100.00;98785.56;5090587;28;20673;-62
2021/12/22 02:09:41;;;;;;;49.03;7.90;;;;;;;1.48;100.00;98786.94;5090629;28;20606;-62
2021/12/22 02:12:10;;;;;;;19.00;5.07;;;;;;;1.34;100.00;98793.03;5090670;28;20598;-62
2021/12/22 02:14:37;;;;;;;50.87;7.57;;;;;;;1.35;100.00;98794.66;5090613;28;20705;-62
2021/12/22 02:17:08;;;;;;;19.50;5.97;;;;;;;1.33;100.00;98792.22;5090646;28;20625;-63
2021/12/22 02:19:38;;;;;;;31.27;8.00;;;;;;;1.39;100.00;98788.06;5090677;28;20609;-63
2021/12/22 02:22:09;;;;;;;16.60;5.87;;;;;;;1.22;100.00;98786.59;5090729;28;20602;-62
2021/12/22 02:24:35;;;;;;;27.83;6.30;;;;;;;1.25;100.00;98778.34;5090553;28;20693;-63
2021/12/22 02:27:06;;;;;;;30.00;5.73;;;;;;;1.29;100.00;98785.69;5090556;28;20641;-64
2021/12/22 02:29:38;;;;;;;12.77;6.53;;;;;;;1.24;100.00;98780.16;5090691;28;20610;-61
2021/12/22 02:32:11;;;;;;;21.10;6.80;;;;;;;1.19;100.00;98789.59;5090678;28;20697;-62
2021/12/22 02:34:42;;;;;;;26.07;6.63;;;;;;;1.30;100.00;98789.94;5090563;28;20712;-63
2021/12/22 02:37:14;;;;;;;20.37;6.13;;;;;;;1.19;100.00;98800.13;5090867;28;20667;-62
2021/12/22 02:39:48;;;;;;;30.90;6.40;;;;;;;1.27;100.00;98794.78;5082230;28;20669;-63
2021/12/22 02:42:19;;;;;;;36.87;8.00;;;;;;;1.14;100.00;98797.22;5090364;28;20639;-62
2021/12/22 02:44:45;;;;;;;39.37;6.57;;;;;;;1.08;100.00;98804.81;5082767;28;20616;-64
2021/12/22 02:47:17;;;;;;;15.80;5.90;;;;;;;1.19;100.00;98795.69;5090444;28;20675;-62
2021/12/22 02:49:45;;;;;;;30.23;6.50;;;;;;;1.25;100.00;98805.47;5082398;28;20605;-63
2021/12/22 02:52:12;;;;;;;32.57;7.00;;;;;;;1.38;100.00;98823.25;5090033;28;20643;-62
2021/12/22 02:54:46;;;;;;;14.30;5.40;;;;;;;1.47;100.00;98814.25;5089994;28;20617;-62
2021/12/22 02:57:23;;;;;;;20.47;6.07;;;;;;;1.22;100.00;98823.44;5090240;28;20637;-62
2021/12/22 03:00:06;;;;;;;41.00;7.33;;;;;;;1.08;100.00;98820.59;5083153;28;20628;-62
2021/12/22 03:02:40;;;;;;;14.47;6.27;;;;;;;0.89;100.00;98810.63;5090252;28;20624;-62
2021/12/22 03:05:09;;;;;;;53.20;7.67;;;;;;;0.95;100.00;98823.06;5089946;28;20676;-63
2021/12/22 03:07:37;;;;;;;22.50;5.90;;;;;;;0.85;100.00;98824.31;5090045;28;20724;-62
2021/12/22 03:10:09;;;;;;;12.93;4.73;;;;;;;0.46;100.00;98821.88;5090140;28;20605;-63
2021/12/22 03:12:37;;;;;;;23.37;5.60;;;;;;;0.48;100.00;98827.75;5090131;28;20690;-62
2021/12/22 03:15:06;;;;;;;31.63;6.00;;;;;;;0.27;100.00;98830.22;5089990;28;20609;-62
2021/12/22 03:17:33;;;;;;;20.83;5.23;;;;;;;0.62;100.00;98829.59;5090084;28;20594;-62
2021/12/22 03:20:01;;;;;;;64.30;8.83;;;;;;;0.66;100.00;98820.38;5090020;28;20649;-62
2021/12/22 03:22:29;;;;;;;21.73;6.37;;;;;;;0.53;100.00;98820.13;5089998;28;20620;-63
2021/12/22 03:24:55;;;;;;;20.23;5.67;;;;;;;0.72;100.00;98818.84;5089962;28;20604;-62
2021/12/22 03:27:23;;;;;;;71.47;8.83;;;;;;;0.84;100.00;98818.22;5089727;28;20679;-62
2021/12/22 03:29:50;;;;;;;41.60;6.90;;;;;;;0.82;100.00;98804.44;5089860;28;20621;-62
2021/12/22 03:32:16;;;;;;;22.97;5.30;;;;;;;0.80;100.00;98809.06;5089534;28;20602;-62
2021/12/22 03:34:43;;;;;;;22.73;5.43;;;;;;;0.98;100.00;98804.28;5089496;28;21412;-62
2021/12/22 03:37:12;;;;;;;21.43;5.27;;;;;;;1.03;100.00;98801.94;5089779;28;20609;-62
2021/12/22 03:39:40;;;;;;;26.87;5.70;;;;;;;1.11;100.00;98814.19;5089688;28;20613;-62
2021/12/22 03:42:09;;;;;;;18.50;5.20;;;;;;;1.08;100.00;98815.34;5089858;28;20606;-62
2021/12/22 03:44:36;;;;;;;17.73;5.50;;;;;;;0.97;100.00;98821.06;5089607;28;20608;-62
2021/12/22 03:47:03;;;;;;;11.23;4.83;;;;;;;0.97;100.00;98818.44;5089664;28;20672;-63
2021/12/22 03:49:30;;;;;;;21.43;6.27;;;;;;;0.95;100.00;98817.81;5089756;28;20602;-63
2021/12/22 03:51:57;;;;;;;28.77;6.70;;;;;;;0.79;100.00;98827.66;5089592;28;20601;-64
2021/12/22 03:54:24;;;;;;;24.40;5.60;;;;;;;0.87;100.00;98823.13;5089633;28;20612;-62
2021/12/22 03:56:52;;;;;;;34.97;5.63;;;;;;;0.96;100.00;98818.63;5089492;28;20618;-62
2021/12/22 03:59:20;;;;;;;19.83;5.10;;;;;;;1.11;100.00;98826.53;5089737;28;20643;-63
2021/12/22 04:01:47;;;;;;;51.40;8.13;;;;;;;0.72;100.00;98830.16;5089537;28;20605;-64
2021/12/22 04:04:17;;;;;;;28.20;6.23;;;;;;;0.59;100.00;98827.31;5089816;28;20605;-62
2021/12/22 04:06:46;;;;;;;33.63;5.60;;;;;;;0.82;100.00;98835.19;5081683;28;20645;-62
2021/12/22 04:09:15;;;;;;;17.00;5.07;;;;;;;0.81;100.00;98838.78;5089724;28;20631;-62
2021/12/22 04:11:42;;;;;;;42.40;7.00;;;;;;;0.73;100.00;98828.38;5080197;28;20602;-62
2021/12/22 04:14:11;;;;;;;35.40;6.57;;;;;;;0.67;100.00;98835.16;5092228;28;20691;-61
2021/12/22 04:16:38;;;;;;;18.17;5.77;;;;;;;0.84;100.00;98827.91;5092657;28;20621;-62
2021/12/22 04:19:05;;;;;;;31.23;6.20;;;;;;;1.01;100.00;98829.41;5092644;28;20605;-62
2021/12/22 04:21:32;;;;;;;39.87;6.57;;;;;;;1.06;100.00;98827.88;5092550;28;20613;-61
2021/12/22 04:23:59;;;;;;;21.03;5.73;;;;;;;0.85;100.00;98821.69;5092174;28;20694;-61
2021/12/22 04:26:27;;;;;;;19.27;7.17;;;;;;;0.69;100.00;98819.19;5092434;28;20644;-61
2021/12/22 04:28:54;;;;;;;26.00;6.50;;;;;;;0.39;100.00;98818.28;5092437;28;20620;-62
2021/12/22 04:31:22;;;;;;;15.20;4.70;;;;;;;0.43;100.00;98825.63;5083146;28;20685;-62
2021/12/22 04:33:49;;;;;;;34.67;6.50;;;;;;;0.51;100.00;98836.09;5092313;28;20605;-63
2021/12/22 04:36:15;;;;;;;15.87;6.00;;;;;;;0.57;100.00;98824.06;5092516;28;20594;-61
2021/12/22 04:38:42;;;;;;;23.57;5.77;;;;;;;0.64;100.00;98835.50;5084094;28;20636;-63
2021/12/22 04:41:09;;;;;;;18.83;4.90;;;;;;;0.61;100.00;98822.72;5092324;28;20589;-62
2021/12/22 04:43:36;;;;;;;57.73;7.73;;;;;;;0.58;100.00;98838.84;5092218;28;20613;-61
2021/12/22 04:46:02;;;;;;;27.50;5.67;;;;;;;0.52;100.00;98834.28;5092104;28;20645;-62
2021/12/22 04:48:32;;;;;;;11.10;4.53;;;;;;;0.45;100.00;98823.66;5092193;28;20620;-62
2021/12/22 04:50:58;;;;;;;11.73;5.70;;;;;;;0.41;100.00;98819.75;5092256;28;21192;-62
2021/12/22 04:53:28;;;;;;;28.70;7.40;;;;;;;0.43;100.00;98830.88;5091756;28;20635;-63
2021/12/22 04:55:54;;;;;;;17.70;5.10;;;;;;;0.51;100.00;98838.72;5091854;28;20610;-62
2021/12/22 04:58:21;;;;;;;27.00;4.47;;;;;;;0.70;100.00;98841.88;5091886;28;20624;-62
2021/12/22 05:00:48;;;;;;;25.67;5.20;;;;;;;0.77;100.00;98833.09;5091781;28;21219;-63
2021/12/22 05:03:14;;;;;;;25.33;6.00;;;;;;;0.86;100.00;98841.72;5091909;28;20616;-61
2021/12/22 05:05:42;;;;;;;37.90;6.43;;;;;;;0.66;100.00;98840.56;5083276;28;20606;-63
2021/12/22 05:08:09;;;;;;;36.93;6.70;;;;;;;0.76;100.00;98844.59;5091647;28;20699;-62
2021/12/22 05:10:35;;;;;;;9.60;4.57;;;;;;;0.82;100.00;98836.00;5091716;28;20610;-63
2021/12/22 05:13:02;;;;;;;25.53;5.47;;;;;;;0.73;100.00;98847.59;5091802;28;20594;-62
2021/12/22 05:15:36;;;;;;;36.77;6.50;;;;;;;0.85;100.00;98846.16;5091516;28;20613;-62
2021/12/22 05:18:21;;;;;;;31.67;6.60;;;;;;;0.65;100.00;98845.00;5091692;28;20600;-63
2021/12/22 05:20:49;;;;;;;21.13;5.80;;;;;;;0.42;100.00;98852.09;5084097;28;20617;-61
2021/12/22 05:23:16;;;;;;;39.17;6.73;;;;;;;0.32;100.00;98848.88;5091246;28;20623;-62
2021/12/22 05:25:43;;;;;;;35.47;6.60;;;;;;;0.47;100.00;98849.75;5091277;28;20615;-62
2021/12/22 05:28:10;;;;;;;12.37;4.73;;;;;;;0.41;100.00;98864.41;5091459;28;20613;-63
2021/12/22 05:30:37;;;;;;;53.13;7.33;;;;;;;0.39;100.00;98860.34;5091143;28;20617;-61
2021/12/22 05:33:04;;;;;;;23.67;5.73;;;;;;;0.54;100.00;98853.31;5091194;28;20605;-62
2021/12/22 05:35:30;;;;;;;24.17;5.63;;;;;;;0.44;100.00;98864.06;5091118;28;20605;-62
2021/12/22 05:37:58;;;;;;;72.23;8.40;;;;;;;0.52;100.00;98858.78;5091066;28;20594;-62
2021/12/22 05:40:27;;;;;;;40.80;6.73;;;;;;;0.32;100.00;98862.03;5090888;28;21229;-62
2021/12/22 05:42:56;;;;;;;36.70;6.23;;;;;;;0.20;100.00;98861.63;5090769;28;20613;-62
2021/12/22 05:45:22;;;;;;;24.37;4.80;;;;;;;0.14;100.00;98866.75;5090889;28;20606;-62
2021/12/22 05:47:50;;;;;;;40.13;6.43;;;;;;;0.20;100.00;98861.63;5090652;28;20637;-61
2021/12/22 05:50:17;;;;;;;41.50;7.03;;;;;;;0.25;100.00;98855.84;5090792;28;20655;-61
2021/12/22 05:52:44;;;;;;;72.30;7.23;;;;;;;0.40;100.00;98857.53;5090435;28;20633;-62
2021/12/22 05:55:12;;;;;;;27.13;6.30;;;;;;;0.17;100.00;98856.72;5090693;28;20614;-62
2021/12/22 05:57:38;;;;;;;20.07;5.27;;;;;;;0.04;100.00;98853.81;5090539;28;20597;-62
2021/12/22 06:00:07;;;;;;;26.17;6.17;;;;;;;-0.01;100.00;98854.34;5090696;28;20602;-62
2021/12/22 06:02:34;;;;;;;30.27;9.40;;;;;;;0.05;100.00;98859.91;5090724;28;20601;-62
2021/12/22 06:05:00;;;;;;;12.90;4.83;;;;;;;-0.25;100.00;98857.09;5090554;28;20609;-62
2021/12/22 06:07:27;;;;;;;34.63;7.20;;;;;;;-0.25;100.00;98859.72;5090428;28;20656;-62
2021/12/22 06:09:53;;;;;;;29.67;5.90;;;;;;;-0.09;100.00;98859.63;5090241;28;20617;-62
2021/12/22 06:12:22;;;;;;;10.63;4.63;;;;;;;-0.27;100.00;98860.88;5090327;28;20650;-62
2021/12/22 06:14:48;;;;;;;27.73;6.73;;;;;;;-0.44;100.00;98867.19;5090344;28;20600;-61
2021/12/22 06:17:15;;;;;;;24.30;5.20;;;;;;;-0.43;100.00;98863.59;5090578;28;20606;-62
2021/12/22 06:19:41;;;;;;;31.83;6.90;;;;;;;-0.11;100.00;98864.25;5081951;28;20625;-62
2021/12/22 06:22:08;;;;;;;35.50;6.03;;;;;;;-0.03;100.00;98858.13;5090179;28;20621;-62
2021/12/22 06:24:35;;;;;;;50.07;6.50;;;;;;;0.01;100.00;98856.78;5089977;28;20598;-62
2021/12/22 06:27:01;;;;;;;24.63;6.47;;;;;;;0.14;100.00;98850.97;5090154;28;20630;-61
2021/12/22 06:29:29;;;;;;;27.00;5.93;;;;;;;0.29;100.00;98854.50;5090343;28;20639;-62
2021/12/22 06:31:56;;;;;;;27.10;5.33;;;;;;;0.40;100.00;98856.72;5089875;28;20602;-62
2021/12/22 06:34:22;;;;;;;31.63;6.10;;;;;;;0.50;100.00;98862.53;5090152;28;20616;-62
2021/12/22 06:36:49;;;;;;;42.77;6.63;;;;;;;-0.08;100.00;98861.28;5089332;28;20608;-62
2021/12/22 06:39:18;;;;;;;16.00;5.73;;;;;;;-0.04;100.00;98865.22;5089978;28;20613;-62
2021/12/22 06:41:46;;;;;;;50.50;7.00;;;;;;;-0.17;100.00;98859.69;5089853;28;20628;-62
2021/12/22 06:44:13;;;;;;;52.30;6.80;;;;;;;-0.27;100.00;98864.31;5089868;28;20641;-62
2021/12/22 06:46:41;;;;;;;20.63;5.70;;;;;;;-0.39;100.00;98870.94;5089835;28;20637;-63
2021/12/22 06:49:08;;;;;;;35.67;6.83;;;;;;;-0.61;100.00;98869.03;5089848;28;20652;-62
2021/12/22 06:51:35;;;;;;;47.77;7.77;;;;;;;-0.77;100.00;98862.03;5089701;28;20606;-61
2021/12/22 06:54:01;;;;;;;50.43;6.90;;;;;;;-0.72;100.00;98869.41;5095342;28;20635;-62
2021/12/22 06:56:29;;;;;;;86.63;8.63;;;;;;;-0.88;100.00;98877.31;5089732;28;20618;-62
2021/12/22 06:58:57;;;;;;;32.70;6.00;;;;;;;-0.73;100.00;98871.22;5089619;28;20610;-62
2021/12/22 07:01:24;;;;;;;25.17;5.20;;;;;;;-0.81;100.00;98862.56;5089632;28;20681;-62
2021/12/22 07:03:52;;;;;;;25.00;5.47;;;;;;;-0.57;100.00;98863.31;5089609;28;20663;-61
2021/12/22 07:06:18;;;;;;;26.63;4.87;;;;;;;-0.41;100.00;98862.44;5089692;28;20613;-62
2021/12/22 07:08:45;;;;;;;24.00;5.13;;;;;;;-0.70;100.00;98863.00;5089680;28;20609;-61
2021/12/22 07:11:13;;;;;;;24.73;5.87;;;;;;;-0.75;100.00;98864.50;5089486;28;20601;-61
2021/12/22 07:13:40;;;;;;;41.17;6.57;;;;;;;-0.67;100.00;98865.28;5089246;28;20628;-62
2021/12/22 07:16:06;;;;;;;74.67;7.97;;;;;;;-0.50;100.00;98862.63;5089418;28;20586;-61
2021/12/22 07:18:34;;;;;;;20.90;6.10;;;;;;;-0.44;100.00;98873.25;5089392;28;20589;-62
2021/12/22 07:21:03;;;;;;;51.67;7.80;;;;;;;-0.63;100.00;98868.41;5089314;28;20621;-62
2021/12/22 07:23:30;;;;;;;26.30;6.20;;;;;;;-0.41;100.00;98867.66;5089512;28;20597;-61
2021/12/22 07:25:56;;;;;;;52.40;6.73;;;;;;;-0.43;100.00;98871.47;5089336;28;20593;-61
2021/12/22 07:28:23;;;;;;;28.37;7.40;;;;;;;-0.51;100.00;98877.53;5089165;28;20702;-62
2021/12/22 07:30:50;;;;;;;37.17;7.60;;;;;;;-0.49;100.00;98878.19;5089464;28;20932;-61
2021/12/22 07:33:17;;;;;;;49.57;7.97;;;;;;;-0.45;100.00;98887.34;5089367;28;20618;-62
2021/12/22 07:35:57;;;;;;;38.97;7.37;;;;;;;-0.24;100.00;98884.97;5089508;28;20609;-63
2021/12/22 07:38:32;;;;;;;13.13;5.17;;;;;;;-0.23;100.00;98876.13;5089399;28;20605;-61
2021/12/22 07:41:01;;;;;;;30.37;7.00;;;;;;;-0.13;100.00;98873.28;5089275;28;20611;-63
2021/12/22 07:43:30;;;;;;;48.27;7.00;;;;;;;-0.45;100.00;98881.28;5089044;28;20628;-62
2021/12/22 07:45:57;;;;;;;39.77;7.60;;;;;;;-0.92;100.00;98884.69;5089222;28;21191;-61
2021/12/22 07:48:24;;;;;;;39.37;6.93;;;;;;;-0.91;100.00;98885.50;5092642;28;20653;-63
2021/12/22 07:50:51;;;;;;;16.70;6.57;;;;;;;-0.91;100.00;98886.34;5093075;28;20613;-62
2021/12/22 07:53:18;;;;;;;47.37;8.40;;;;;;;-0.85;100.00;98890.09;5098833;28;20642;-62
2021/12/22 07:55:47;;;;;;;98.43;10.40;;;;;;;-1.05;100.00;98894.84;5092494;28;20635;-61
2021/12/22 07:58:13;;;;;;;53.03;7.97;;;;;;;-0.91;100.00;98896.81;5092637;28;20635;-62
2021/12/22 08:00:40;;;;;;;100.53;11.00;;;;;;;-0.65;100.00;98889.53;5092805;28;20624;-62
2021/12/22 08:03:08;;;;;;;45.67;8.40;;;;;;;-0.29;100.00;98892.56;5092857;28;21221;-62
2021/12/22 08:05:35;;;;;;;32.80;6.93;;;;;;;-0.48;100.00;98892.94;5092686;28;20625;-61
2021/12/22 08:08:02;;;;;;;42.50;9.27;;;;;;;-0.37;100.00;98895.19;5092568;28;20683;-62
2021/12/22 08:10:28;;;;;;;26.87;7.73;;;;;;;-0.52;100.00;98894.25;5092593;28;20601;-62
2021/12/22 08:12:57;;;;;;;73.30;19.70;;;;;;;-0.33;100.00;98893.88;5092641;28;20608;-64
2021/12/22 08:15:24;;;;;;;61.13;13.13;;;;;;;-0.37;100.00;98903.06;5092392;28;20605;-62
2021/12/22 08:17:52;;;;;;;83.43;12.20;;;;;;;-0.36;100.00;98898.63;5092024;28;20636;-62
2021/12/22 08:20:19;;;;;;;39.77;8.20;;;;;;;-0.65;100.00;98905.28;5092324;28;20673;-62
2021/12/22 08:22:46;;;;;;;38.03;8.80;;;;;;;-0.62;100.00;98901.53;5092192;28;20616;-61
2021/12/22 08:25:13;;;;;;;58.50;9.33;;;;;;;-0.33;100.00;98901.75;5092204;28;20613;-64
2021/12/22 08:27:41;;;;;;;68.53;9.90;;;;;;;-0.57;100.00;98901.81;5092270;28;20674;-61
2021/12/22 08:30:10;;;;;;;79.97;11.07;;;;;;;-0.77;100.00;98904.00;5092261;28;20601;-62
2021/12/22 08:32:37;;;;;;;31.60;6.23;;;;;;;-0.75;100.00;98916.97;5092209;28;20663;-62
2021/12/22 08:35:07;;;;;;;41.23;7.10;;;;;;;-0.68;100.00;98913.47;5092186;28;20620;-62
2021/12/22 08:40:19;;;;;;;45.03;8.87;;;;;;;-1.13;100.00;98919.28;5091911;28;20620;-62
2021/12/22 08:42:46;;;;;;;47.70;8.60;;;;;;;-1.03;100.00;98924.38;5091978;28;20617;-61
2021/12/22 08:45:14;;;;;;;57.83;8.17;;;;;;;-0.49;100.00;98935.91;5082744;28;20609;-62
2021/12/22 08:47:42;;;;;;;38.33;7.60;;;;;;;-0.52;100.00;98933.63;5091771;28;20670;-61
2021/12/22 08:50:11;;;;;;;85.67;11.13;;;;;;;-0.59;100.00;98940.53;5091932;28;20620;-62
2021/12/22 08:52:37;;;;;;;96.63;10.53;;;;;;;-0.17;100.00;98935.00;5091846;28;20593;-61
2021/12/22 08:55:05;;;;;;;36.17;8.50;;;;;;;0.11;100.00;98927.50;5097080;28;20598;-62
2021/12/22 08:57:32;;;;;;;41.77;8.77;;;;;;;0.05;100.00;98933.44;5091615;28;20624;-61
2021/12/22 08:59:58;;;;;;;33.70;6.90;;;;;;;-0.03;100.00;98934.28;5090968;28;20665;-62
2021/12/22 09:02:26;;;;;;;22.70;7.50;;;;;;;-0.11;100.00;98929.88;5091698;28;20612;-63
2021/12/22 09:04:53;;;;;;;24.97;6.90;;;;;;;0.08;100.00;98930.47;5091519;28;20601;-62
2021/12/22 09:07:20;;;;;;;34.63;8.40;;;;;;;0.10;100.00;98942.44;5091440;28;20629;-61
2021/12/22 09:09:46;;;;;;;76.60;10.43;;;;;;;-0.10;100.00;98943.84;5091400;28;20601;-63
2021/12/22 09:12:14;;;;;;;39.40;7.50;;;;;;;-0.23;100.00;98943.56;5091689;28;20597;-62
2021/12/22 09:14:41;;;;;;;51.07;8.63;;;;;;;-0.16;100.00;98949.78;5091282;28;20625;-61
2021/12/22 09:17:08;;;;;;;31.03;6.27;;;;;;;-0.07;100.00;98944.31;5091326;28;20594;-63
2021/12/22 09:19:36;;;;;;;38.20;7.10;;;;;;;0.19;100.00;98938.78;5091434;28;20621;-63
2021/12/22 09:22:03;;;;;;;58.47;8.23;;;;;;;0.20;100.00;98944.84;5091159;28;20602;-62
2021/12/22 09:24:30;;;;;;;33.87;6.47;;;;;;;0.36;100.00;98936.88;5091146;28;20601;-62
2021/12/22 09:26:57;;;;;;;30.83;7.73;;;;;;;0.38;100.00;98935.72;5091273;28;20605;-61
2021/12/22 09:29:26;;;;;;;41.20;7.53;;;;;;;0.41;100.00;98937.16;5091128;28;20606;-62
2021/12/22 09:31:53;;;;;;;43.33;7.73;;;;;;;0.49;100.00;98939.78;5091077;28;20743;-61
2021/12/22 09:34:20;;;;;;;46.30;7.70;;;;;;;0.60;100.00;98941.16;5091228;28;20633;-62
2021/12/22 09:36:48;;;;;;;54.63;8.07;;;;;;;0.49;100.00;98924.81;5090934;28;20655;-62
2021/12/22 09:39:14;;;;;;;26.83;5.83;;;;;;;0.50;100.00;98923.00;5091174;28;20679;-63
2021/12/22 09:41:41;;;;;;;55.37;8.00;;;;;;;0.61;100.00;98924.41;5091033;28;20613;-62
2021/12/22 09:44:08;;;;;;;17.33;6.33;;;;;;;0.61;100.00;98922.59;5090860;28;20618;-62
2021/12/22 09:46:38;;;;;;;33.30;6.67;;;;;;;0.73;100.00;98915.13;5090856;28;20639;-62
2021/12/22 09:49:19;;;;;;;40.47;6.50;;;;;;;0.70;100.00;98911.03;5090755;28;20610;-62
2021/12/22 09:54:33;;;;;;;23.90;7.40;;;;;;;0.34;100.00;98912.59;5095528;28;20670;-63
2021/12/22 09:57:00;;;;;;;29.17;6.83;;;;;;;0.41;100.00;98905.63;5090775;28;20929;-61
2021/12/22 09:59:27;;;;;;;54.60;8.23;;;;;;;0.33;100.00;98900.44;5090443;28;20643;-63
2021/12/22 10:01:54;;;;;;;47.93;6.70;;;;;;;0.22;100.00;98895.56;5090666;28;20605;-62
2021/12/22 10:04:20;;;;;;;39.87;7.47;;;;;;;0.13;100.00;98896.63;5090656;28;20613;-61
2021/12/22 10:06:48;;;;;;;53.90;8.50;;;;;;;0.30;100.00;98895.53;5090563;28;20609;-62
2021/12/22 10:09:15;;;;;;;79.57;8.53;;;;;;;0.36;100.00;98900.09;5090605;28;20605;-62
2021/12/22 10:11:44;;;;;;;82.07;9.90;;;;;;;0.15;100.00;98892.03;5081212;28;20610;-62
2021/12/22 10:14:19;;;;;;;72.80;8.33;;;;;;;0.20;100.00;98879.19;5090664;28;20621;-62
2021/12/22 10:16:47;;;;;;;23.47;6.00;;;;;;;0.32;100.00;98875.97;5082647;28;20619;-61
2021/12/22 10:19:14;;;;;;;27.07;7.43;;;;;;;0.52;100.00;98877.16;5090348;28;21084;-61
2021/12/22 10:21:54;;;;;;;84.80;10.63;;;;;;;0.57;100.00;98888.94;5090128;28;20609;-62
2021/12/22 10:24:34;;;;;;;46.70;8.60;;;;;;;0.38;100.00;98875.28;5090061;28;20606;-62
2021/12/22 10:27:06;;;;;;;33.97;7.37;;;;;;;0.37;100.00;98876.25;5090182;28;20664;-62
2021/12/22 10:29:34;;;;;;;40.77;7.63;;;;;;;0.03;100.00;98875.03;5090314;28;20605;-61
2021/12/22 10:32:10;;;;;;;39.33;7.23;;;;;;;-0.16;100.00;98877.09;5089069;28;20659;-62
2021/12/22 10:34:37;;;;;;;44.20;9.03;;;;;;;-0.29;100.00;98871.56;5090096;28;20589;-62
2021/12/22 10:37:05;;;;;;;41.00;8.33;;;;;;;-0.37;100.00;98863.69;5089869;28;20614;-61
2021/12/22 10:39:33;;;;;;;34.87;8.13;;;;;;;-0.42;100.00;98860.78;5089949;28;20722;-63
2021/12/22 10:42:05;;;;;;;53.67;9.13;;;;;;;-0.40;100.00;98860.63;5089782;28;20586;-61
2021/12/22 10:44:36;;;;;;;45.50;7.30;;;;;;;-0.50;100.00;98852.13;5089734;28;20640;-63
2021/12/22 10:47:18;;;;;;;28.67;6.47;;;;;;;-0.34;100.00;98847.63;5089818;28;20704;-62
2021/12/22 10:49:59;;;;;;;112.23;12.00;;;;;;;-0.20;100.00;98846.09;5081781;28;20665;-62
2021/12/22 10:52:28;;;;;;;25.93;6.13;;;;;;;-0.24;100.00;98850.03;5089688;28;20647;-61
2021/12/22 10:55:08;;;;;;;42.90;6.87;;;;;;;-0.20;100.00;98844.28;5089664;28;20662;-62
2021/12/22 10:57:37;;;;;;;22.70;6.57;;;;;;;-0.20;100.00;98836.41;5089692;28;20627;-62
2021/12/22 11:00:14;;;;;;;33.23;6.57;;;;;;;-0.40;100.00;98845.66;5089822;28;20689;-62
2021/12/22 11:02:44;;;;;;;51.37;8.13;;;;;;;-0.54;100.00;98838.53;5089917;28;20605;-62
2021/12/22 11:05:18;;;;;;;23.70;6.33;;;;;;;-0.37;100.00;98834.84;5089887;28;20635;-62
2021/12/22 11:07:46;;;;;;;71.60;8.97;;;;;;;-0.51;100.00;98832.94;5081685;28;20625;-62
2021/12/22 11:10:24;;;;;;;19.33;5.70;;;;;;;-0.31;100.00;98831.53;5089749;28;20636;-62
2021/12/22 11:13:00;;;;;;;42.87;6.80;;;;;;;-0.25;100.00;98824.78;5082363;28;20633;-62
2021/12/22 11:15:27;;;;;;;32.47;6.40;;;;;;;-0.12;100.00;98825.84;5089577;28;20621;-62
2021/12/22 11:17:54;;;;;;;34.80;6.33;;;;;;;-0.25;100.00;98815.09;5089392;28;20653;-62
2021/12/22 11:20:23;;;;;;;19.57;5.47;;;;;;;-0.21;100.00;98807.69;5089775;28;20614;-62
2021/12/22 11:22:57;;;;;;;34.90;6.37;;;;;;;-0.20;100.00;98812.78;5092020;28;20601;-62
2021/12/22 11:25:24;;;;;;;30.23;6.17;;;;;;;-0.09;100.00;98809.75;5093631;28;20639;-63
2021/12/22 11:27:53;;;;;;;86.90;8.40;;;;;;;-0.26;100.00;98797.72;5093340;28;20624;-62
2021/12/22 11:30:21;;;;;;;48.00;7.47;;;;;;;-0.17;100.00;98798.47;5093328;28;20606;-62
2021/12/22 11:32:48;;;;;;;35.57;6.30;;;;;;;-0.26;100.00;98797.72;5093064;28;20605;-62
2021/12/22 11:35:16;;;;;;;27.53;5.67;;;;;;;-0.17;100.00;98786.19;5094502;28;20598;-62
2021/12/22 11:37:44;;;;;;;18.83;4.27;;;;;;;-0.26;100.00;98789.03;5085531;28;20613;-62